createdAt,value
2022-10-10T00:04:53.214Z,10.30
2022-10-10T00:10:02.410Z,10.05
2022-10-10T00:15:20.414Z,8.98
2022-10-10T00:20:22.377Z,10.13
2022-10-10T00:25:30.162Z,7.65
2022-10-10T00:30:34.443Z,11.53
2022-10-10T00:35:39.314Z,9.63
2022-10-10T00:40:46.672Z,7.20
2022-10-10T00:45:52.073Z,8.30
2022-10-10T00:51:22.474Z,7.07
2022-10-10T00:56:32.255Z,5.53
2022-10-10T01:01:34.630Z,9.00
2022-10-10T01:07:00.421Z,7.40
2022-10-10T01:12:32.263Z,5.63
2022-10-10T01:17:39.150Z,9.20
2022-10-10T01:22:59.442Z,6.87
2022-10-10T01:28:39.412Z,4.67
2022-10-10T01:33:44.104Z,11.63
2022-10-10T01:38:52.713Z,8.60
2022-10-10T01:43:59.867Z,5.27
2022-10-10T01:49:01.922Z,5.63
2022-10-10T01:54:31.921Z,5.77
2022-10-10T01:59:45.326Z,6.60
2022-10-10T02:04:59.061Z,9.77
2022-10-10T02:10:08.158Z,9.00
2022-10-10T02:15:17.646Z,4.53
2022-10-10T02:20:25.228Z,5.13
2022-10-10T02:25:30.206Z,5.50
2022-10-10T02:30:39.818Z,7.20
2022-10-10T02:35:45.803Z,12.50
2022-10-10T02:40:48.419Z,7.87
2022-10-10T02:45:54.253Z,8.10
2022-10-10T02:51:01.868Z,11.00
2022-10-10T02:56:06.438Z,11.13
2022-10-10T03:01:10.609Z,10.37
2022-10-10T03:06:17.628Z,9.37
2022-10-10T03:11:20.517Z,8.63
2022-10-10T03:16:24.570Z,7.47
2022-10-10T03:21:30.994Z,9.37
2022-10-10T03:26:32.844Z,4.90
2022-10-10T03:31:36.720Z,7.57
2022-10-10T03:36:43.180Z,6.37
2022-10-10T03:41:50.342Z,7.73
2022-10-10T03:46:56.647Z,6.80
2022-10-10T03:52:03.984Z,6.07
2022-10-10T03:57:07.918Z,8.50
2022-10-10T04:02:09.619Z,6.87
2022-10-10T04:07:13.873Z,5.77
2022-10-10T04:12:18.981Z,5.53
2022-10-10T04:17:23.358Z,5.83
2022-10-10T04:22:25.935Z,4.87
2022-10-10T04:27:27.688Z,9.93
2022-10-10T04:32:29.391Z,5.67
2022-10-10T04:37:34.296Z,7.67
2022-10-10T04:42:40.645Z,7.57
2022-10-10T04:47:44.945Z,7.80
2022-10-10T04:52:51.230Z,7.47
2022-10-10T04:57:57.613Z,7.67
2022-10-10T05:03:03.832Z,7.03
2022-10-10T05:08:06.096Z,7.63
2022-10-10T05:13:16.059Z,5.63
2022-10-10T05:18:20.454Z,8.33
2022-10-10T05:23:26.769Z,4.67
2022-10-10T05:28:29.685Z,10.47
2022-10-10T05:33:32.137Z,11.33
2022-10-10T05:38:39.116Z,7.10
2022-10-10T05:43:43.071Z,7.60
2022-10-10T05:48:44.802Z,8.70
2022-10-10T05:53:47.147Z,9.97
2022-10-10T05:58:53.942Z,8.53
2022-10-10T06:04:00.555Z,8.67
2022-10-10T06:09:03.741Z,8.87
2022-10-10T06:14:13.668Z,11.47
2022-10-10T06:19:18.275Z,12.17
2022-10-10T06:24:20.155Z,12.60
2022-10-10T06:29:22.904Z,8.80
2022-10-10T06:34:33.234Z,8.10
2022-10-10T06:39:37.825Z,7.07
2022-10-10T06:44:39.583Z,8.07
2022-10-10T06:49:43.669Z,5.43
2022-10-10T06:54:50.168Z,6.50
2022-10-10T06:59:54.181Z,8.90
2022-10-10T07:04:55.921Z,9.10
2022-10-10T07:09:57.581Z,4.93
2022-10-10T07:15:04.198Z,7.23
2022-10-10T07:20:08.664Z,7.37
2022-10-10T07:25:10.384Z,9.57
2022-10-10T07:30:14.865Z,8.63
2022-10-10T07:35:17.968Z,8.07
2022-10-10T07:40:19.682Z,5.87
2022-10-10T07:45:21.424Z,6.20
2022-10-10T07:50:26.091Z,7.53
2022-10-10T07:55:32.519Z,6.37
2022-10-10T08:00:37.509Z,9.43
2022-10-10T08:05:42.904Z,7.77
2022-10-10T08:10:44.816Z,8.57
2022-10-10T08:15:53.740Z,8.43
2022-10-10T08:21:05.230Z,5.20
2022-10-10T08:26:09.893Z,8.03
2022-10-10T08:31:15.070Z,6.13
2022-10-10T08:36:20.454Z,8.57
2022-10-10T08:41:39.597Z,6.33
2022-10-10T08:46:46.770Z,8.30
2022-10-10T08:51:57.386Z,5.18
2022-10-10T08:57:01.233Z,7.68
2022-10-10T09:02:53.218Z,6.95
2022-10-10T09:08:02.868Z,8.95
2022-10-10T09:13:26.310Z,9.05
2022-10-10T09:18:40.560Z,10.13
2022-10-10T09:23:57.474Z,8.00
2022-10-10T09:29:39.103Z,8.25
2022-10-10T09:34:49.038Z,8.88
2022-10-10T09:39:52.863Z,5.47
2022-10-10T09:44:54.597Z,13.70
2022-10-10T09:55:26.990Z,6.93
2022-10-10T10:00:40.574Z,7.80
2022-10-10T10:06:01.683Z,7.45
2022-10-10T10:11:06.352Z,7.95
2022-10-10T10:16:11.929Z,6.78
2022-10-10T10:21:23.655Z,11.82
2022-10-10T10:26:46.686Z,9.70
2022-10-10T10:31:53.315Z,8.07
2022-10-10T10:37:14.915Z,6.45
2022-10-10T10:42:54.191Z,11.02
2022-10-10T10:48:10.454Z,9.05
2022-10-10T10:53:35.991Z,7.70
2022-10-10T11:05:19.873Z,11.77
2022-10-10T11:10:36.577Z,8.20
2022-10-10T11:16:06.692Z,5.75
2022-10-10T11:21:18.375Z,8.68
2022-10-10T11:26:47.316Z,9.75
2022-10-10T11:31:49.989Z,8.90
2022-10-10T11:36:55.062Z,9.27
2022-10-10T11:42:19.106Z,7.65
2022-10-10T11:47:40.240Z,8.85
2022-10-10T11:52:59.064Z,12.88
2022-10-10T11:58:06.494Z,7.68
2022-10-10T12:03:15.774Z,10.38
2022-10-10T12:08:33.566Z,14.63
2022-10-10T12:13:35.870Z,7.85
2022-10-10T12:18:49.631Z,11.82
2022-10-10T12:24:11.372Z,10.48
2022-10-10T12:29:51.308Z,10.98
2022-10-10T12:34:53.203Z,13.93
2022-10-10T12:40:21.478Z,9.00
2022-10-10T12:45:31.661Z,9.13
2022-10-10T12:50:41.782Z,15.30
2022-10-10T12:55:50.198Z,9.32
2022-10-10T13:00:52.766Z,10.55
2022-10-10T13:05:56.368Z,15.15
2022-10-10T13:11:08.382Z,15.02
2022-10-10T13:16:15.452Z,12.50
2022-10-10T13:21:29.850Z,13.48
2022-10-10T13:26:33.050Z,17.95
2022-10-10T13:31:34.840Z,13.30
2022-10-10T13:36:38.741Z,14.52
2022-10-10T13:41:48.582Z,16.67
2022-10-10T13:46:53.011Z,10.43
2022-10-10T13:52:22.004Z,14.57
2022-10-10T13:57:27.726Z,17.02
2022-10-10T14:02:36.006Z,14.65
2022-10-10T14:07:48.191Z,18.85
2022-10-10T14:12:52.015Z,14.27
2022-10-10T14:17:55.350Z,15.45
2022-10-10T14:23:01.701Z,16.10
2022-10-10T14:28:06.150Z,15.50
2022-10-10T14:33:15.810Z,20.33
2022-10-10T14:38:20.816Z,15.13
2022-10-10T14:43:25.675Z,17.35
2022-10-10T14:48:33.788Z,16.98
2022-10-10T14:53:35.590Z,17.80
2022-10-10T14:58:42.193Z,22.42
2022-10-10T15:03:43.877Z,21.00
2022-10-10T15:08:45.563Z,25.15
2022-10-10T15:13:47.358Z,23.48
2022-10-10T15:18:54.417Z,25.20
2022-10-10T15:23:59.829Z,24.33
2022-10-10T15:29:01.657Z,12.25
2022-10-10T15:34:06.205Z,9.85
2022-10-10T15:39:14.142Z,8.40
2022-10-10T15:44:21.159Z,8.50
2022-10-10T15:49:25.260Z,10.77
2022-10-10T15:54:27.002Z,13.23
2022-10-10T15:59:37.934Z,10.98
2022-10-10T16:04:42.649Z,13.77
2022-10-10T16:09:49.661Z,15.15
2022-10-10T16:14:54.461Z,14.15
2022-10-10T16:19:56.533Z,11.10
2022-10-10T16:25:20.833Z,14.02
2022-10-10T16:30:20.978Z,9.60
2022-10-10T16:35:25.351Z,16.87
2022-10-10T16:40:29.316Z,18.15
2022-10-10T16:45:31.098Z,15.43
2022-10-10T16:50:35.130Z,19.02
2022-10-10T16:55:42.466Z,17.80
2022-10-10T17:00:47.203Z,17.90
2022-10-10T17:05:52.451Z,16.20
2022-10-10T17:10:58.359Z,12.68
2022-10-10T17:16:44.704Z,12.00
2022-10-10T17:21:29.120Z,16.92
2022-10-10T17:26:37.401Z,13.90
2022-10-10T17:31:41.943Z,15.23
2022-10-10T17:36:50.044Z,12.82
2022-10-10T17:41:54.166Z,20.83
2022-10-10T17:46:56.714Z,20.80
2022-10-10T17:51:58.435Z,9.73
2022-10-10T17:57:01.201Z,12.77
2022-10-10T18:02:05.048Z,17.65
2022-10-10T18:07:13.318Z,17.60
2022-10-10T18:12:16.108Z,9.65
2022-10-10T18:17:17.827Z,13.82
2022-10-10T18:22:19.590Z,15.85
2022-10-10T18:27:21.752Z,15.23
2022-10-10T18:32:25.542Z,14.63
2022-10-10T18:37:33.864Z,11.00
2022-10-10T18:42:38.480Z,14.87
2022-10-10T18:47:42.397Z,15.83
2022-10-10T18:52:47.721Z,18.25
2022-10-10T18:57:49.457Z,17.98
2022-10-10T19:02:51.550Z,20.05
2022-10-10T19:07:53.253Z,21.50
2022-10-10T19:12:54.971Z,26.77
2022-10-10T19:17:56.902Z,22.13
2022-10-10T19:23:02.450Z,22.50
2022-10-10T19:28:08.978Z,16.20
2022-10-10T19:33:12.739Z,19.83
2022-10-10T19:38:22.024Z,29.67
2022-10-10T19:43:26.265Z,19.55
2022-10-10T19:48:33.396Z,20.85
2022-10-10T19:53:39.892Z,20.70
2022-10-10T19:58:43.158Z,18.27
2022-10-10T20:03:48.816Z,16.13
2022-10-10T20:08:53.224Z,20.20
2022-10-10T20:13:55.891Z,16.43
2022-10-10T20:18:58.882Z,18.13
2022-10-10T20:24:03.599Z,22.90
2022-10-10T20:29:06.068Z,18.03
2022-10-10T20:34:14.937Z,23.50
2022-10-10T20:39:25.144Z,20.03
2022-10-10T20:44:26.935Z,23.93
2022-10-10T20:49:28.634Z,18.27
2022-10-10T20:54:30.329Z,21.80
2022-10-10T20:59:34.251Z,16.13
2022-10-10T21:04:37.136Z,15.23
2022-10-10T21:09:41.039Z,22.00
2022-10-10T21:14:50.398Z,11.13
2022-10-10T21:19:52.100Z,12.20
2022-10-10T21:24:56.051Z,11.13
2022-10-10T21:29:57.794Z,19.03
2022-10-10T21:35:01.867Z,25.73
2022-10-10T21:40:07.269Z,20.83
2022-10-10T21:45:09.546Z,12.60
2022-10-10T21:50:16.067Z,18.80
2022-10-10T21:55:17.838Z,23.33
2022-10-10T22:00:20.388Z,21.20
2022-10-10T22:05:22.171Z,13.43
2022-10-10T22:10:23.856Z,15.90
2022-10-10T22:15:25.549Z,22.47
2022-10-10T22:20:27.326Z,21.87
2022-10-10T22:25:31.546Z,18.80
2022-10-10T22:30:35.947Z,24.57
2022-10-10T22:35:41.099Z,19.13
2022-10-10T22:40:42.794Z,17.43
2022-10-10T22:45:44.775Z,20.93
2022-10-10T22:50:51.767Z,21.00
2022-10-10T22:55:54.503Z,23.47
2022-10-10T23:00:58.483Z,19.10
2022-10-10T23:06:05.527Z,19.03
2022-10-10T23:11:07.621Z,18.07
2022-10-10T23:16:12.767Z,20.97
2022-10-10T23:21:19.217Z,21.63
2022-10-10T23:26:20.972Z,22.97
2022-10-10T23:31:28.325Z,21.83
2022-10-10T23:36:34.532Z,19.57
2022-10-10T23:41:36.900Z,23.40
2022-10-10T23:46:41.292Z,18.93
2022-10-10T23:51:45.410Z,21.83
2022-10-10T23:56:49.923Z,16.80
